Pagrindinis puslapis
METAR-TAF:

METAR-TAF

Oro uostai :

Abu Dabis, Jungtiniai Arabų Emyratai

platuma: 24-26N, ilguma: 054-39E, Aukštis: 16 m

Dabartinis oras

Ataskaita buvo paskelbta 58 minutes, ne 04:00 UTC
Vėjas 1 kt nuo kintamojo kryptimis
Temperatūra 33°C
Drėgmė 56%
Slėgis 999 hPa
Matomumas: 8000 m

METAR: OMAA 160400Z VRB01KT 8000 NSC 33/23 Q0999 NOSIG

Laikas: 08:58 (04:58 UTC)

Prognozė

Ataskaita buvo paskelbta 5 valandos ir 58 minutes, ne 23:00 UTC
Prognozė galioja nuo 16 metu 00 UTC su 17 metu 06 UTC
Vėjas 8 kt iš Rytų/Pietryčių
Matomumas: 8000 m
Tikimybė 30%
nuo 16 metu 02 UTC su 16 metu 07 UTC
Matomumas: 4000 m
dulkės
Tapsmas
nuo 16 metu 07 UTC su 16 metu 09 UTC
Vėjas 15 kt iš Šiaurės Vakarų
Tapsmas
nuo 16 metu 16 UTC su 16 metu 18 UTC
Vėjas 2 kt nuo kintamojo kryptimis

TAF: OMAA 152300Z 1600/1706 11008KT 8000 NSC PROB30 1602/1607 4000 DU BECMG 1607/1609 32015KT BECMG 1616/1618 VRB02KT

Orai ataskaitas ir orų prognozės (METAR, TAF).

turimą stotys yra geltonos ir raudonos taškus žemėlapyje.

Perkelti pele per norėdami pamatyti stoties vardą.

Tada spustelėkite, norėdami matyti oro stebėjimo ir prognozės.

Norėdami pakeisti žemėlapį: spustelėkite ant žalios mygtukų su juodo kryžiaus žemyn,; žalią mygtuką su brūkšneliu, jei norite nutolinti; arba žalių rodyklių gretimoms žemėlapius.


METAR-TAF: